Aeroporto :
LOGIN :

Iscrizione | Disclaimer

   EN    FR    IT 

 










Sommario :    VFR   VFR Marginale   IFR   IFR Intensivo   IFR Molto Intensivo
Visibilità : 
Base nubi : 
>= 8 km
>= 3000ft
5 / 8 km
1000 / 3000 ft
1500m / 5 km
500 / 1000 ft
800 / 1500m
200 / 500 ft
< 800m
< 200 ft
Simboli :   Temporali  Nebbia  Neve Forte  Precipitazioni Forti  Vento > 20 kt
SIGMETs :   Varie  Temporali  Ghiacco  Turbolenza  Onda orograficha  Ceneri Vulcaniche






- Altitudine del aeroporto : 978 ft
- Codice IATA : LNZ


LOWL - Linz

ULTIMO METAR :
  • 221550Z 31008KT CAVOK 11/00 Q1024 NOSIG

METARs OBSOLETI :
  • 221520Z 30008KT CAVOK 12/00 Q1024 NOSIG
  • 221450Z 30010KT CAVOK 12/M01 Q1025 NOSIG
  • 221420Z 33006KT CAVOK 13/M00 Q1025 NOSIG
  • 221350Z 28008KT 260V320 CAVOK 13/M02 Q1025 NOSIG

TAF TAF LOWL
Valido dal 22 a 12 ore il 23 a 12 ore UTC


221115Z 2212/2312 29007KT CAVOK TX12/2215Z TN07/2305Z
BECMG 2222/2301 26012KT 9999 BKN060
TEMPO 2303/2310 29015KT -RA BKN030
TEMPO 2310/2312 26020G30KT -RA BKN030



MetMap, La meteo Aeronautica in un colpo d'occhio ! - Copyright ORBIFLY Dicembre 2007 - Disclaimer

ORBIFLY MET'MAP TEAM :

Programmazione e sviluppo : Alexandra Zaïnal
Concezione : Baudouin d'Aumeries
Aiuto per la programmazione : Marc-Olivier Méhu
Supporto tecnico e logistico : Manuel Goepfert
Aiuto per la traduzione : Arnaldo La Scala

Contatto : metmap@orbifly.com




FONTI E CREDITI :

   NOAA